createdAt,value
2023-04-28T00:01:08.233Z,12.46
2023-04-28T00:03:39.456Z,12.14
2023-04-28T00:06:10.015Z,12.17
2023-04-28T00:08:40.542Z,12.29
2023-04-28T00:11:14.607Z,12.20
2023-04-28T00:13:44.669Z,12.20
2023-04-28T00:16:15.393Z,12.18
2023-04-28T00:18:45.128Z,12.19
2023-04-28T00:21:15.185Z,11.90
2023-04-28T00:23:45.518Z,11.93
2023-04-28T00:26:17.430Z,11.85
2023-04-28T00:28:47.543Z,11.86
2023-04-28T00:31:17.652Z,11.92
2023-04-28T00:33:48.046Z,11.94
2023-04-28T00:36:18.319Z,11.84
2023-04-28T00:38:49.300Z,11.76
2023-04-28T00:41:21.259Z,11.59
2023-04-28T00:43:52.674Z,11.66
2023-04-28T00:46:27.031Z,11.58
2023-04-28T00:48:56.789Z,11.30
2023-04-28T00:51:28.099Z,11.33
2023-04-28T00:53:58.471Z,11.17
2023-04-28T00:56:31.971Z,10.99
2023-04-28T00:59:02.315Z,10.92
2023-04-28T01:01:32.621Z,11.07
2023-04-28T01:04:03.352Z,11.01
2023-04-28T01:06:34.993Z,10.75
2023-04-28T01:09:08.209Z,10.79
2023-04-28T01:11:39.631Z,10.96
2023-04-28T01:14:09.479Z,10.68
2023-04-28T01:16:41.076Z,10.76
2023-04-28T01:19:19.642Z,10.75
2023-04-28T01:21:49.729Z,10.63
2023-04-28T01:24:21.193Z,10.58
2023-04-28T01:26:51.333Z,10.34
2023-04-28T01:29:21.025Z,10.60
2023-04-28T01:31:51.031Z,10.53
2023-04-28T01:34:21.430Z,10.56
2023-04-28T01:36:51.629Z,10.43
2023-04-28T01:39:23.503Z,10.59
2023-04-28T01:41:54.486Z,10.24
2023-04-28T01:44:24.773Z,10.51
2023-04-28T01:46:55.116Z,10.20
2023-04-28T01:49:26.053Z,10.31
2023-04-28T01:51:56.254Z,10.35
2023-04-28T01:54:28.819Z,10.05
2023-04-28T01:56:59.973Z,10.00
2023-04-28T01:59:30.202Z,10.16
2023-04-28T02:02:00.940Z,10.10
2023-04-28T02:04:31.986Z,10.00
2023-04-28T02:07:02.680Z,10.31
2023-04-28T02:09:34.873Z,9.97
2023-04-28T02:12:06.223Z,9.98
2023-04-28T02:14:35.944Z,9.98
2023-04-28T02:17:06.051Z,9.97
2023-04-28T02:19:39.403Z,9.83
2023-04-28T02:22:10.130Z,9.95
2023-04-28T02:24:41.160Z,9.87
2023-04-28T02:27:11.640Z,9.77
2023-04-28T02:29:42.220Z,9.71
2023-04-28T02:32:12.855Z,9.77
2023-04-28T02:34:43.351Z,9.71
2023-04-28T02:37:13.651Z,9.63
2023-04-28T02:39:45.941Z,9.54
2023-04-28T02:42:16.712Z,9.65
2023-04-28T02:44:46.966Z,9.62
2023-04-28T02:47:17.526Z,9.72
2023-04-28T02:49:48.210Z,9.58
2023-04-28T02:52:18.314Z,9.61
2023-04-28T02:54:54.781Z,9.64
2023-04-28T02:57:24.813Z,9.75
2023-04-28T02:59:54.865Z,9.64
2023-04-28T03:02:26.674Z,9.67
2023-04-28T03:04:57.232Z,9.49
2023-04-28T03:07:27.225Z,9.20
2023-04-28T03:09:58.317Z,9.37
2023-04-28T03:12:28.726Z,9.45
2023-04-28T03:14:59.261Z,9.64
2023-04-28T03:17:30.106Z,9.29
2023-04-28T03:19:59.838Z,9.44
2023-04-28T03:22:29.580Z,9.56
2023-04-28T03:25:01.191Z,9.41
2023-04-28T03:27:31.505Z,9.34
2023-04-28T03:30:02.114Z,9.12
2023-04-28T03:32:32.193Z,9.10
2023-04-28T03:35:02.836Z,9.00
2023-04-28T03:37:33.475Z,9.16
2023-04-28T03:40:06.310Z,9.41
2023-04-28T03:42:36.541Z,9.45
2023-04-28T03:45:07.614Z,9.20
2023-04-28T03:47:38.330Z,9.26
2023-04-28T03:50:10.061Z,9.44
2023-04-28T03:52:40.445Z,9.32
2023-04-28T03:55:13.772Z,9.10
2023-04-28T03:57:44.166Z,9.23
2023-04-28T04:00:16.170Z,9.17
2023-04-28T04:02:46.598Z,9.22
2023-04-28T04:05:17.126Z,9.22
2023-04-28T04:07:47.672Z,8.97
2023-04-28T04:10:20.015Z,9.02
2023-04-28T04:12:50.124Z,9.17
2023-04-28T04:15:20.258Z,9.41
2023-04-28T04:17:50.980Z,9.51
2023-04-28T04:20:20.762Z,9.32
2023-04-28T04:22:51.671Z,9.40
2023-04-28T04:25:23.814Z,9.64
2023-04-28T04:27:53.740Z,9.50
2023-04-28T04:30:24.361Z,9.63
2023-04-28T04:32:55.069Z,9.79
2023-04-28T04:35:25.741Z,9.79
2023-04-28T04:37:55.566Z,9.68
2023-04-28T04:40:27.341Z,9.57
2023-04-28T04:42:59.926Z,9.77
2023-04-28T04:45:30.394Z,9.85
2023-04-28T04:48:02.283Z,9.72
2023-04-28T04:50:32.874Z,9.94
2023-04-28T04:53:03.124Z,9.96
2023-04-28T04:55:35.057Z,9.97
2023-04-28T04:58:05.789Z,10.08
2023-04-28T05:00:37.618Z,9.86
2023-04-28T05:03:10.078Z,9.99
2023-04-28T05:05:41.156Z,9.99
2023-04-28T05:08:11.286Z,10.11
2023-04-28T05:10:42.702Z,10.14
2023-04-28T05:13:13.399Z,10.10
2023-04-28T05:15:43.912Z,10.33
2023-04-28T05:18:14.494Z,10.46
2023-04-28T05:20:44.553Z,10.43
2023-04-28T05:23:14.786Z,10.26
2023-04-28T05:25:47.352Z,9.69
2023-04-28T05:28:20.099Z,9.37
2023-04-28T05:30:51.624Z,9.94
2023-04-28T05:33:23.584Z,10.22
2023-04-28T05:35:53.911Z,10.40
2023-04-28T05:38:23.975Z,10.48
2023-04-28T05:40:56.176Z,10.62
2023-04-28T05:43:26.886Z,10.45
2023-04-28T05:45:57.325Z,10.46
2023-04-28T05:48:27.567Z,10.54
2023-04-28T05:50:57.640Z,10.57
2023-04-28T05:53:28.047Z,10.57
2023-04-28T05:56:00.278Z,10.29
2023-04-28T05:58:32.417Z,10.29
2023-04-28T06:01:03.108Z,10.75
2023-04-28T06:03:34.087Z,10.48
2023-04-28T06:06:07.857Z,10.78
2023-04-28T06:08:41.319Z,10.75
2023-04-28T06:11:12.477Z,10.66
2023-04-28T06:13:42.882Z,10.85
2023-04-28T06:16:12.529Z,10.21
2023-04-28T06:18:43.514Z,10.49
2023-04-28T06:21:13.514Z,10.45
2023-04-28T06:23:43.900Z,10.75
2023-04-28T06:26:16.839Z,10.77
2023-04-28T06:28:49.090Z,10.86
2023-04-28T06:31:19.033Z,11.00
2023-04-28T06:33:48.751Z,10.98
2023-04-28T06:36:20.881Z,10.89
2023-04-28T06:38:52.027Z,10.98
2023-04-28T06:41:25.222Z,11.12
2023-04-28T06:43:55.182Z,11.02
2023-04-28T06:46:26.553Z,11.16
2023-04-28T06:48:56.640Z,10.85
2023-04-28T06:51:27.029Z,11.09
2023-04-28T06:53:57.453Z,11.15
2023-04-28T06:56:29.764Z,11.29
2023-04-28T06:59:00.268Z,11.47
2023-04-28T07:01:30.424Z,11.50
2023-04-28T07:04:01.162Z,11.30
2023-04-28T07:06:32.452Z,11.20
2023-04-28T07:09:03.359Z,11.34
2023-04-28T07:11:35.409Z,11.43
2023-04-28T07:14:05.057Z,11.30
2023-04-28T07:16:35.169Z,11.18
2023-04-28T07:19:05.346Z,11.32
2023-04-28T07:21:37.339Z,11.39
2023-04-28T07:24:08.378Z,11.58
2023-04-28T07:26:42.477Z,11.57
2023-04-28T07:29:14.589Z,11.66
2023-04-28T07:31:46.040Z,11.46
2023-04-28T07:34:18.391Z,11.61
2023-04-28T07:36:48.653Z,11.76
2023-04-28T07:39:19.367Z,11.97
2023-04-28T07:41:51.466Z,11.84
2023-04-28T07:44:22.699Z,11.70
2023-04-28T07:46:53.375Z,11.80
2023-04-28T07:49:23.262Z,11.78
2023-04-28T07:51:55.482Z,11.91
2023-04-28T07:54:25.955Z,12.06
2023-04-28T07:56:59.917Z,11.85
2023-04-28T07:59:29.784Z,11.93
2023-04-28T08:01:59.437Z,11.94
2023-04-28T08:04:29.330Z,11.94
2023-04-28T08:07:00.330Z,12.11
2023-04-28T08:09:30.850Z,12.19
2023-04-28T08:12:02.651Z,12.26
2023-04-28T08:14:33.464Z,12.29
2023-04-28T08:17:04.520Z,12.28
2023-04-28T08:19:33.969Z,12.26
2023-04-28T08:22:07.328Z,12.34
2023-04-28T08:24:37.623Z,12.30
2023-04-28T08:27:09.951Z,12.33
2023-04-28T08:29:40.974Z,12.31
2023-04-28T08:32:11.195Z,12.28
2023-04-28T08:34:41.128Z,12.25
2023-04-28T08:37:11.174Z,12.38
2023-04-28T08:39:41.167Z,12.37
2023-04-28T08:42:13.163Z,12.43
2023-04-28T08:44:43.907Z,12.49
2023-04-28T08:47:15.922Z,12.41
2023-04-28T08:49:47.245Z,12.33
2023-04-28T08:52:21.232Z,12.22
2023-04-28T08:54:52.256Z,12.39
2023-04-28T08:57:23.926Z,12.40
2023-04-28T08:59:56.560Z,12.46
2023-04-28T09:02:26.955Z,12.53
2023-04-28T09:04:57.838Z,12.49
2023-04-28T09:07:29.692Z,12.59
2023-04-28T09:10:19.964Z,12.49
2023-04-28T09:12:55.644Z,12.47
2023-04-28T09:15:33.760Z,12.60
2023-04-28T09:18:05.765Z,12.53
2023-04-28T09:20:37.156Z,12.62
2023-04-28T09:23:20.041Z,12.56
2023-04-28T09:26:01.283Z,12.52
2023-04-28T09:28:36.063Z,12.40
2023-04-28T09:31:06.832Z,12.45
2023-04-28T09:33:38.141Z,12.52
2023-04-28T09:36:09.344Z,12.58
2023-04-28T09:38:46.756Z,12.74
2023-04-28T09:41:17.450Z,12.80
2023-04-28T09:43:49.951Z,13.03
2023-04-28T09:46:31.502Z,12.97
2023-04-28T09:49:04.179Z,13.23
2023-04-28T09:51:35.093Z,13.13
2023-04-28T09:54:06.433Z,12.90
2023-04-28T09:56:41.695Z,13.04
2023-04-28T09:59:15.492Z,13.19
2023-04-28T10:01:47.118Z,13.29
2023-04-28T10:04:18.818Z,13.34
2023-04-28T10:06:49.596Z,13.37
2023-04-28T10:09:26.952Z,13.63
2023-04-28T10:11:58.379Z,13.55
2023-04-28T10:14:30.754Z,13.46
2023-04-28T10:17:03.545Z,13.42
2023-04-28T10:19:34.219Z,13.37
2023-04-28T10:22:19.948Z,13.13
2023-04-28T10:25:04.716Z,13.28
2023-04-28T10:27:35.378Z,13.36
2023-04-28T10:30:26.601Z,13.22
2023-04-28T10:33:25.599Z,13.39
2023-04-28T10:35:56.358Z,13.46
2023-04-28T10:38:26.732Z,13.19
2023-04-28T10:41:01.993Z,13.38
2023-04-28T10:43:40.700Z,13.54
2023-04-28T10:46:14.750Z,13.51
2023-04-28T10:49:08.566Z,13.56
2023-04-28T10:51:38.946Z,13.58
2023-04-28T10:54:28.570Z,13.70
2023-04-28T10:57:23.407Z,13.75
2023-04-28T10:59:54.371Z,13.69
2023-04-28T11:02:52.921Z,13.74
2023-04-28T11:05:23.344Z,13.54
2023-04-28T11:08:33.471Z,13.78
2023-04-28T11:11:21.180Z,13.88
2023-04-28T11:13:52.612Z,13.77
2023-04-28T11:16:26.210Z,13.79
2023-04-28T11:19:05.750Z,13.84
2023-04-28T11:21:36.093Z,13.95
2023-04-28T11:24:13.181Z,14.04
2023-04-28T11:26:43.916Z,14.13
2023-04-28T11:29:16.429Z,14.36
2023-04-28T11:31:52.872Z,14.31
2023-04-28T11:34:25.728Z,14.69
2023-04-28T11:36:56.167Z,14.92
2023-04-28T11:39:31.510Z,14.76
2023-04-28T11:42:03.886Z,14.48
2023-04-28T11:44:34.673Z,14.46
2023-04-28T11:47:06.327Z,14.46
2023-04-28T11:49:49.765Z,14.47
2023-04-28T11:52:20.890Z,14.66
2023-04-28T11:54:58.322Z,14.65
2023-04-28T11:57:29.226Z,14.86
2023-04-28T12:00:20.009Z,15.06
2023-04-28T12:02:50.454Z,15.25
2023-04-28T12:05:23.309Z,15.42
2023-04-28T12:07:55.277Z,15.28
2023-04-28T12:10:25.774Z,15.19
2023-04-28T12:12:56.597Z,15.55
2023-04-28T12:15:41.968Z,15.39
2023-04-28T12:18:13.823Z,15.52
2023-04-28T12:21:11.411Z,15.49
2023-04-28T12:23:44.307Z,15.25
2023-04-28T12:26:16.231Z,15.59
2023-04-28T12:28:49.343Z,15.37
2023-04-28T12:31:19.953Z,15.37
2023-04-28T12:33:50.346Z,15.11
2023-04-28T12:36:21.705Z,15.02
2023-04-28T12:38:52.398Z,15.45
2023-04-28T12:41:23.205Z,15.25
2023-04-28T12:43:53.969Z,15.07
2023-04-28T12:46:24.847Z,15.33
2023-04-28T12:48:55.320Z,15.34
2023-04-28T12:51:30.245Z,15.03
2023-04-28T12:54:00.019Z,15.01
2023-04-28T12:56:31.076Z,15.16
2023-04-28T12:59:02.725Z,15.10
2023-04-28T13:01:34.552Z,14.99
2023-04-28T13:04:05.088Z,15.13
2023-04-28T13:06:39.322Z,15.21
2023-04-28T13:09:10.088Z,15.05
2023-04-28T13:11:40.256Z,15.08
2023-04-28T13:14:11.421Z,15.00
2023-04-28T13:16:41.489Z,15.05
2023-04-28T13:19:14.612Z,14.95
2023-04-28T13:21:47.865Z,15.15
2023-04-28T13:24:18.006Z,15.01
2023-04-28T13:26:48.033Z,15.26
2023-04-28T13:29:18.656Z,15.33
2023-04-28T13:31:49.182Z,15.12
2023-04-28T13:34:19.945Z,14.93
2023-04-28T13:36:55.064Z,14.94
2023-04-28T13:39:24.729Z,15.29
2023-04-28T13:41:55.346Z,15.22
2023-04-28T13:44:25.710Z,15.16
2023-04-28T13:46:57.392Z,15.05
2023-04-28T13:49:27.282Z,15.15
2023-04-28T13:51:58.866Z,15.15
2023-04-28T13:54:29.193Z,15.43
2023-04-28T13:56:59.661Z,15.51
2023-04-28T13:59:30.208Z,15.51
2023-04-28T14:02:00.471Z,15.40
2023-04-28T14:04:30.640Z,15.06
2023-04-28T14:07:03.012Z,15.02
2023-04-28T14:09:33.204Z,15.15
2023-04-28T14:12:03.974Z,15.10
2023-04-28T14:14:33.646Z,14.94
2023-04-28T14:17:04.284Z,15.03
2023-04-28T14:19:34.740Z,15.38
2023-04-28T14:22:07.237Z,15.12
2023-04-28T14:24:38.205Z,15.15
2023-04-28T14:27:08.976Z,15.05
2023-04-28T14:29:39.460Z,15.03
2023-04-28T14:32:09.120Z,15.21
2023-04-28T14:34:38.962Z,15.10
2023-04-28T14:37:11.426Z,15.23
2023-04-28T14:39:41.542Z,15.06
2023-04-28T14:42:11.649Z,14.98
2023-04-28T14:44:41.987Z,15.10
2023-04-28T14:47:13.609Z,15.05
2023-04-28T14:49:44.051Z,15.10
2023-04-28T14:52:16.362Z,15.18
2023-04-28T14:54:47.662Z,15.11
2023-04-28T14:57:18.668Z,15.17
2023-04-28T14:59:51.242Z,15.06
2023-04-28T15:02:28.162Z,14.96
2023-04-28T15:04:59.008Z,14.84
2023-04-28T15:07:32.189Z,14.80
2023-04-28T15:10:02.718Z,14.85
2023-04-28T15:12:35.034Z,14.81
2023-04-28T15:15:08.387Z,14.73
2023-04-28T15:17:39.303Z,14.81
2023-04-28T15:20:10.629Z,14.91
2023-04-28T15:22:44.710Z,14.86
2023-04-28T15:25:15.789Z,14.89
2023-04-28T15:27:46.061Z,14.90
2023-04-28T15:30:16.338Z,14.84
2023-04-28T15:32:46.612Z,14.80
2023-04-28T15:35:16.912Z,14.89
2023-04-28T15:37:50.884Z,15.04
2023-04-28T15:40:23.302Z,14.81
2023-04-28T15:42:55.214Z,14.72
2023-04-28T15:45:25.797Z,14.77
2023-04-28T15:47:57.543Z,14.66
2023-04-28T15:50:28.702Z,14.67
2023-04-28T15:53:03.452Z,14.61
2023-04-28T15:55:33.665Z,14.69
2023-04-28T15:58:05.310Z,14.52
2023-04-28T16:00:36.246Z,14.64
2023-04-28T16:03:08.542Z,14.62
2023-04-28T16:05:40.045Z,14.63
2023-04-28T16:08:11.302Z,14.61
2023-04-28T16:10:42.998Z,14.63
2023-04-28T16:13:13.776Z,14.65
2023-04-28T16:15:44.513Z,14.56
2023-04-28T16:18:17.411Z,14.52
2023-04-28T16:20:47.804Z,14.42
2023-04-28T16:23:21.977Z,14.30
2023-04-28T16:25:54.612Z,14.43
2023-04-28T16:28:24.178Z,14.46
2023-04-28T16:30:54.985Z,14.43
2023-04-28T16:33:25.503Z,14.45
2023-04-28T16:36:01.979Z,14.37
2023-04-28T16:38:34.180Z,14.48
2023-04-28T16:41:03.964Z,14.45
2023-04-28T16:43:34.546Z,14.49
2023-04-28T16:46:05.477Z,14.55
2023-04-28T16:48:35.340Z,14.49
2023-04-28T16:51:08.769Z,14.60
2023-04-28T16:53:42.088Z,14.44
2023-04-28T16:56:12.186Z,14.55
2023-04-28T16:58:42.274Z,14.41
2023-04-28T17:01:13.214Z,14.47
2023-04-28T17:03:43.799Z,14.33
2023-04-28T17:06:14.017Z,14.27
2023-04-28T17:08:45.805Z,14.27
2023-04-28T17:11:19.946Z,14.47
2023-04-28T17:13:50.587Z,14.47
2023-04-28T17:16:21.647Z,14.26
2023-04-28T17:18:53.775Z,14.18
2023-04-28T17:21:24.904Z,14.15
2023-04-28T17:23:57.906Z,14.09
2023-04-28T17:26:29.969Z,14.18
2023-04-28T17:29:02.616Z,14.06
2023-04-28T17:31:36.882Z,14.06
2023-04-28T17:34:08.994Z,13.99
2023-04-28T17:36:39.820Z,13.99
2023-04-28T17:39:14.241Z,14.02
2023-04-28T17:41:47.335Z,13.96
2023-04-28T17:44:18.416Z,13.95
2023-04-28T17:46:49.063Z,13.86
2023-04-28T17:49:18.931Z,13.90
2023-04-28T17:51:49.507Z,13.99
2023-04-28T17:54:21.359Z,13.77
2023-04-28T17:56:52.172Z,13.74
2023-04-28T17:59:25.449Z,13.62
2023-04-28T18:01:56.924Z,13.53
2023-04-28T18:04:27.475Z,13.68
2023-04-28T18:06:58.540Z,13.67
2023-04-28T18:09:32.432Z,13.70
2023-04-28T18:12:04.067Z,13.69
2023-04-28T18:14:34.658Z,13.66
2023-04-28T18:17:04.723Z,13.57
2023-04-28T18:19:36.427Z,13.58
2023-04-28T18:22:06.465Z,13.52
2023-04-28T18:24:38.302Z,13.65
2023-04-28T18:27:09.647Z,13.64
2023-04-28T18:29:42.619Z,13.50
2023-04-28T18:32:15.003Z,13.50
2023-04-28T18:34:48.814Z,13.58
2023-04-28T18:37:19.352Z,13.61
2023-04-28T18:39:50.956Z,13.68
2023-04-28T18:42:21.890Z,13.50
2023-04-28T18:44:59.009Z,13.32
2023-04-28T18:47:29.290Z,13.35
2023-04-28T18:50:00.150Z,13.27
2023-04-28T18:52:31.196Z,13.40
2023-04-28T18:55:03.117Z,13.49
2023-04-28T18:57:35.895Z,13.40
2023-04-28T19:00:06.873Z,13.38
2023-04-28T19:02:37.728Z,13.27
2023-04-28T19:05:08.566Z,13.17
2023-04-28T19:07:39.642Z,13.14
2023-04-28T19:10:12.639Z,13.06
2023-04-28T19:12:43.457Z,13.05
2023-04-28T19:15:14.246Z,13.18
2023-04-28T19:17:46.018Z,13.20
2023-04-28T19:20:16.320Z,13.29
2023-04-28T19:22:48.207Z,13.16
2023-04-28T19:25:20.814Z,13.22
2023-04-28T19:27:51.271Z,13.20
2023-04-28T19:30:21.955Z,13.27
2023-04-28T19:32:52.471Z,13.32
2023-04-28T19:35:23.233Z,13.36
2023-04-28T19:37:55.099Z,13.28
2023-04-28T19:40:27.841Z,13.42
2023-04-28T19:43:00.152Z,13.29
2023-04-28T19:45:30.478Z,13.08
2023-04-28T19:48:00.923Z,13.09
2023-04-28T19:50:33.762Z,12.96
2023-04-28T19:53:06.029Z,13.03
2023-04-28T19:55:40.653Z,13.26
2023-04-28T19:58:10.744Z,13.16
2023-04-28T20:00:41.249Z,13.21
2023-04-28T20:03:11.210Z,13.20
2023-04-28T20:05:44.606Z,13.17
2023-04-28T20:08:15.504Z,12.97
2023-04-28T20:10:48.199Z,12.93
2023-04-28T20:13:18.432Z,12.89
2023-04-28T20:15:48.899Z,12.84
2023-04-28T20:18:19.114Z,12.95
2023-04-28T20:20:49.237Z,13.19
2023-04-28T20:23:19.380Z,13.14
2023-04-28T20:25:51.319Z,13.12
2023-04-28T20:28:21.245Z,13.03
2023-04-28T20:30:51.635Z,13.05
2023-04-28T20:33:21.495Z,13.13
2023-04-28T20:35:54.663Z,12.96
2023-04-28T20:38:25.210Z,13.10
2023-04-28T20:40:59.623Z,12.85
2023-04-28T20:43:30.424Z,12.97
2023-04-28T20:46:00.210Z,12.92
2023-04-28T20:48:30.790Z,12.94
2023-04-28T20:51:00.766Z,13.04
2023-04-28T20:53:32.048Z,12.94
2023-04-28T20:56:05.177Z,13.02
2023-04-28T20:58:36.021Z,13.01
2023-04-28T21:01:05.908Z,13.00
2023-04-28T21:03:36.248Z,13.03
2023-04-28T21:06:07.308Z,12.97
2023-04-28T21:08:37.322Z,13.05
2023-04-28T21:11:14.585Z,13.08
2023-04-28T21:13:45.906Z,13.03
2023-04-28T21:16:20.481Z,12.98
2023-04-28T21:18:52.817Z,12.86
2023-04-28T21:21:23.193Z,12.84
2023-04-28T21:23:53.400Z,12.94
2023-04-28T21:26:27.388Z,12.85
2023-04-28T21:28:56.925Z,12.96
2023-04-28T21:31:26.876Z,13.05
2023-04-28T21:33:57.073Z,12.90
2023-04-28T21:36:27.024Z,12.90
2023-04-28T21:38:57.563Z,12.80
2023-04-28T21:41:30.273Z,12.75
2023-04-28T21:44:01.196Z,13.00
2023-04-28T21:46:31.180Z,12.96
2023-04-28T21:49:02.096Z,13.02
2023-04-28T21:51:33.379Z,12.94
2023-04-28T21:54:03.714Z,12.80
2023-04-28T21:56:35.923Z,12.94
2023-04-28T21:59:05.726Z,12.84
2023-04-28T22:01:36.239Z,12.65
2023-04-28T22:04:09.235Z,12.68
2023-04-28T22:06:39.833Z,12.80
2023-04-28T22:09:10.206Z,12.85
2023-04-28T22:11:41.929Z,12.84
2023-04-28T22:14:15.163Z,12.82
2023-04-28T22:16:47.989Z,12.74
2023-04-28T22:19:17.900Z,12.81
2023-04-28T22:21:47.571Z,12.93
2023-04-28T22:24:18.341Z,12.78
2023-04-28T22:26:50.461Z,12.74
2023-04-28T22:29:20.397Z,12.91
2023-04-28T22:31:50.696Z,12.87
2023-04-28T22:34:21.697Z,12.81
2023-04-28T22:36:52.289Z,12.68
2023-04-28T22:39:25.604Z,12.88
2023-04-28T22:41:57.276Z,12.90
2023-04-28T22:44:27.159Z,12.78
2023-04-28T22:46:58.994Z,12.88
2023-04-28T22:49:30.896Z,12.68
2023-04-28T22:52:01.183Z,12.67
2023-04-28T22:54:32.632Z,12.64
2023-04-28T22:57:06.603Z,12.72
2023-04-28T22:59:36.820Z,12.89
2023-04-28T23:02:09.340Z,12.87
2023-04-28T23:04:38.943Z,12.81
2023-04-28T23:07:09.230Z,12.80
2023-04-28T23:09:38.946Z,12.86
2023-04-28T23:12:10.989Z,12.75
2023-04-28T23:14:42.138Z,12.80
2023-04-28T23:17:12.415Z,12.79
2023-04-28T23:19:42.965Z,12.78
2023-04-28T23:22:14.435Z,12.74
2023-04-28T23:24:45.628Z,12.69
2023-04-28T23:27:18.252Z,12.70
2023-04-28T23:29:48.145Z,12.67
2023-04-28T23:32:17.956Z,12.64
2023-04-28T23:34:47.918Z,12.71
2023-04-28T23:37:18.117Z,12.63
2023-04-28T23:39:48.057Z,12.87
2023-04-28T23:42:19.151Z,12.76
2023-04-28T23:44:49.983Z,12.68
2023-04-28T23:47:19.517Z,12.57
2023-04-28T23:49:50.030Z,12.67
2023-04-28T23:52:20.562Z,12.61
2023-04-28T23:54:51.249Z,12.63
2023-04-28T23:57:23.780Z,12.64
2023-04-28T23:59:54.921Z,12.56
